createdAt,value
2018-05-25T00:01:23.896Z,4.18
2018-05-25T00:03:51.339Z,3.90
2018-05-25T00:06:18.752Z,4.25
2018-05-25T00:08:46.956Z,3.80
2018-05-25T00:11:14.446Z,4.03
2018-05-25T00:13:41.885Z,4.03
2018-05-25T00:16:09.328Z,4.03
2018-05-25T00:18:36.809Z,3.83
2018-05-25T00:21:04.257Z,4.20
2018-05-25T00:23:31.701Z,4.35
2018-05-25T00:25:59.181Z,3.90
2018-05-25T00:28:26.615Z,4.57
2018-05-25T00:30:54.070Z,4.00
2018-05-25T00:33:21.509Z,4.20
2018-05-25T00:35:48.949Z,4.20
2018-05-25T00:38:17.262Z,4.10
2018-05-25T00:40:44.688Z,4.20
2018-05-25T00:43:12.892Z,3.85
2018-05-25T00:45:40.371Z,3.80
2018-05-25T00:48:07.837Z,3.70
2018-05-25T00:50:35.274Z,4.37
2018-05-25T00:53:02.746Z,4.55
2018-05-25T00:55:41.612Z,3.85
2018-05-25T00:58:09.823Z,4.20
2018-05-25T01:00:37.241Z,4.20
2018-05-25T01:03:05.451Z,4.20
2018-05-25T01:05:32.883Z,4.50
2018-05-25T01:08:00.354Z,4.20
2018-05-25T01:10:27.778Z,4.50
2018-05-25T01:12:55.973Z,4.50
2018-05-25T01:15:23.467Z,4.20
2018-05-25T01:17:51.001Z,4.07
2018-05-25T01:20:18.411Z,4.20
2018-05-25T01:22:46.639Z,3.97
2018-05-25T01:25:15.032Z,4.60
2018-05-25T01:27:42.472Z,4.40
2018-05-25T01:30:09.937Z,4.30
2018-05-25T01:32:37.409Z,5.00
2018-05-25T01:35:04.865Z,4.10
2018-05-25T01:37:32.292Z,4.27
2018-05-25T01:39:59.743Z,4.07
2018-05-25T01:42:27.200Z,4.20
2018-05-25T01:44:54.628Z,4.20
2018-05-25T01:47:22.829Z,4.37
2018-05-25T01:49:50.261Z,4.20
2018-05-25T01:52:17.704Z,4.07
2018-05-25T01:54:45.911Z,4.90
2018-05-25T01:57:13.388Z,4.15
2018-05-25T01:59:40.844Z,4.25
2018-05-25T02:02:08.276Z,4.00
2018-05-25T02:04:35.769Z,4.40
2018-05-25T02:07:03.209Z,4.50
2018-05-25T02:09:30.762Z,4.80
2018-05-25T02:11:58.594Z,4.40
2018-05-25T02:14:26.189Z,4.60
2018-05-25T02:16:53.641Z,4.57
2018-05-25T02:19:21.080Z,4.57
2018-05-25T02:21:48.513Z,4.70
2018-05-25T02:24:16.723Z,4.00
2018-05-25T02:26:44.147Z,4.70
2018-05-25T02:29:12.373Z,4.65
2018-05-25T02:31:39.822Z,4.65
2018-05-25T02:34:07.246Z,4.20
2018-05-25T02:36:34.685Z,4.60
2018-05-25T02:39:02.929Z,4.62
2018-05-25T02:41:30.381Z,4.70
2018-05-25T02:43:57.836Z,4.70
2018-05-25T02:46:25.391Z,4.80
2018-05-25T02:48:52.826Z,4.40
2018-05-25T02:51:20.252Z,4.93
2018-05-25T02:53:47.697Z,4.45
2018-05-25T02:56:15.897Z,5.07
2018-05-25T02:58:43.340Z,5.10
2018-05-25T03:01:10.768Z,5.10
2018-05-25T03:03:38.306Z,4.45
2018-05-25T03:06:05.720Z,4.72
2018-05-25T03:08:33.204Z,4.87
2018-05-25T03:11:00.601Z,4.90
2018-05-25T03:13:28.808Z,5.15
2018-05-25T03:15:56.271Z,5.10
2018-05-25T03:18:23.693Z,4.53
2018-05-25T03:20:51.892Z,4.45
2018-05-25T03:23:19.340Z,4.60
2018-05-25T03:25:46.920Z,5.57
2018-05-25T03:28:14.375Z,5.20
2018-05-25T03:30:41.814Z,4.90
2018-05-25T03:33:09.306Z,6.75
2018-05-25T03:35:36.773Z,5.90
2018-05-25T03:38:04.217Z,5.60
2018-05-25T03:40:31.655Z,4.60
2018-05-25T03:42:59.084Z,4.85
2018-05-25T03:45:27.320Z,5.10
2018-05-25T03:47:54.765Z,5.00
2018-05-25T03:50:22.241Z,5.40
2018-05-25T03:52:49.693Z,5.30
2018-05-25T03:55:17.137Z,5.20
2018-05-25T03:57:44.609Z,5.62
2018-05-25T04:00:23.945Z,5.00
2018-05-25T04:02:51.476Z,5.10
2018-05-25T04:05:18.914Z,5.20
2018-05-25T04:07:46.378Z,5.30
2018-05-25T04:10:13.809Z,5.10
2018-05-25T04:12:41.236Z,5.00
2018-05-25T04:15:09.449Z,5.22
2018-05-25T04:17:36.876Z,5.10
2018-05-25T04:20:05.081Z,4.97
2018-05-25T04:22:32.545Z,5.50
2018-05-25T04:24:59.988Z,5.70
2018-05-25T04:27:27.457Z,6.45
2018-05-25T04:29:54.880Z,5.18
2018-05-25T04:32:23.077Z,6.10
2018-05-25T04:34:50.542Z,5.00
2018-05-25T04:37:17.965Z,5.25
2018-05-25T04:39:46.204Z,5.80
2018-05-25T04:42:13.731Z,5.37
2018-05-25T04:44:41.144Z,5.78
2018-05-25T04:47:09.360Z,5.40
2018-05-25T04:49:36.817Z,6.10
2018-05-25T04:52:04.229Z,6.20
2018-05-25T04:54:32.443Z,5.40
2018-05-25T04:56:59.933Z,5.40
2018-05-25T04:59:27.390Z,7.50
2018-05-25T05:01:54.920Z,5.70
2018-05-25T05:04:22.376Z,5.95
2018-05-25T05:06:49.840Z,6.50
2018-05-25T05:09:17.296Z,6.75
2018-05-25T05:11:44.729Z,6.00
2018-05-25T05:14:12.205Z,6.28
2018-05-25T05:16:39.681Z,5.75
2018-05-25T05:19:07.161Z,7.50
2018-05-25T05:21:34.599Z,6.77
2018-05-25T05:24:02.063Z,6.22
2018-05-25T05:26:29.509Z,7.10
2018-05-25T05:28:56.942Z,6.70
2018-05-25T05:31:24.496Z,6.50
2018-05-25T05:33:51.925Z,5.80
2018-05-25T05:36:19.398Z,7.05
2018-05-25T05:38:46.824Z,7.03
2018-05-25T05:41:15.062Z,6.45
2018-05-25T05:43:42.639Z,6.47
2018-05-25T05:46:10.179Z,6.40
2018-05-25T05:48:37.601Z,5.70
2018-05-25T05:51:05.078Z,5.97
2018-05-25T05:53:32.528Z,6.18
2018-05-25T05:56:00.010Z,7.75
2018-05-25T05:58:27.450Z,6.83
2018-05-25T06:00:54.893Z,6.32
2018-05-25T06:03:22.396Z,5.70
2018-05-25T06:05:49.849Z,6.50
2018-05-25T06:08:17.324Z,5.72
2018-05-25T06:10:45.664Z,6.25
2018-05-25T06:13:13.100Z,5.43
2018-05-25T06:15:40.544Z,5.87
2018-05-25T06:18:08.046Z,6.00
2018-05-25T06:20:35.476Z,5.47
2018-05-25T06:23:02.923Z,6.25
2018-05-25T06:25:30.391Z,5.50
2018-05-25T06:27:57.822Z,5.65
2018-05-25T06:30:25.265Z,5.60
2018-05-25T06:32:53.470Z,5.13
2018-05-25T06:35:20.981Z,6.70
2018-05-25T06:37:48.408Z,5.80
2018-05-25T06:40:16.037Z,6.00
2018-05-25T06:42:43.496Z,6.32
2018-05-25T06:45:10.916Z,6.10
2018-05-25T06:47:39.139Z,6.18
2018-05-25T06:50:06.650Z,5.57
2018-05-25T06:52:34.869Z,5.90
2018-05-25T06:55:02.311Z,6.95
2018-05-25T06:57:29.794Z,5.67
2018-05-25T06:59:57.215Z,5.80
2018-05-25T07:02:24.786Z,5.30
2018-05-25T07:04:52.204Z,5.25
2018-05-25T07:07:20.429Z,5.45
2018-05-25T07:09:47.855Z,5.62
2018-05-25T07:12:15.332Z,5.30
2018-05-25T07:14:42.753Z,6.00
2018-05-25T07:17:11.008Z,5.33
2018-05-25T07:19:38.470Z,5.80
2018-05-25T07:22:05.973Z,5.78
2018-05-25T07:24:33.405Z,5.53
2018-05-25T07:27:01.625Z,5.80
2018-05-25T07:29:29.093Z,5.90
2018-05-25T07:31:56.573Z,5.65
2018-05-25T07:34:24.039Z,5.18
2018-05-25T07:36:52.275Z,5.57
2018-05-25T07:39:19.773Z,6.70
2018-05-25T07:41:47.266Z,5.78
2018-05-25T07:44:14.691Z,6.55
2018-05-25T07:46:42.928Z,5.80
2018-05-25T07:49:10.348Z,5.40
2018-05-25T07:51:37.838Z,5.70
2018-05-25T07:54:05.285Z,7.12
2018-05-25T07:56:32.820Z,5.72
2018-05-25T07:59:00.275Z,5.80
2018-05-25T08:01:27.756Z,5.50
2018-05-25T08:03:55.196Z,6.15
2018-05-25T08:06:22.688Z,5.70
2018-05-25T08:08:50.126Z,5.18
2018-05-25T08:11:17.592Z,5.37
2018-05-25T08:13:45.140Z,6.57
2018-05-25T08:16:12.584Z,4.80
2018-05-25T08:18:40.041Z,5.22
2018-05-25T08:21:07.494Z,5.12
2018-05-25T08:23:34.924Z,5.45
2018-05-25T08:26:02.380Z,5.60
2018-05-25T08:28:30.580Z,5.47
2018-05-25T08:30:58.068Z,5.70
2018-05-25T08:33:25.508Z,4.80
2018-05-25T08:35:52.951Z,5.10
2018-05-25T08:38:20.409Z,5.45
2018-05-25T08:40:47.853Z,5.25
2018-05-25T08:43:15.348Z,5.37
2018-05-25T08:45:42.792Z,6.32
2018-05-25T08:48:10.326Z,5.53
2018-05-25T08:50:37.801Z,5.70
2018-05-25T08:53:05.245Z,5.85
2018-05-25T08:55:32.685Z,5.35
2018-05-25T08:58:00.122Z,5.73
2018-05-25T09:00:28.332Z,6.07
2018-05-25T09:02:55.882Z,5.70
2018-05-25T09:05:23.368Z,4.85
2018-05-25T09:07:50.832Z,5.55
2018-05-25T09:10:18.462Z,5.57
2018-05-25T09:12:45.881Z,5.55
2018-05-25T09:15:14.140Z,6.03
2018-05-25T09:17:41.581Z,5.45
2018-05-25T09:20:09.102Z,5.40
2018-05-25T09:22:36.590Z,4.70
2018-05-25T09:25:04.021Z,6.22
2018-05-25T09:27:31.456Z,5.47
2018-05-25T09:29:58.917Z,5.78
2018-05-25T09:32:26.358Z,8.30
2018-05-25T09:34:53.973Z,6.15
2018-05-25T09:37:21.404Z,5.77
2018-05-25T09:39:49.258Z,5.20
2018-05-25T09:42:16.737Z,5.10
2018-05-25T09:44:44.217Z,6.10
2018-05-25T09:47:11.632Z,5.57
2018-05-25T09:49:39.088Z,10.95
2018-05-25T09:52:06.541Z,5.55
2018-05-25T09:54:34.017Z,5.70
2018-05-25T09:57:01.499Z,6.00
2018-05-25T09:59:28.977Z,6.12
2018-05-25T10:01:56.502Z,5.20
2018-05-25T10:04:23.938Z,5.10
2018-05-25T10:06:51.397Z,5.70
2018-05-25T10:09:18.873Z,4.83
2018-05-25T10:11:46.369Z,6.60
2018-05-25T10:14:13.873Z,6.25
2018-05-25T10:16:41.325Z,5.55
2018-05-25T10:19:08.886Z,5.10
2018-05-25T10:21:36.321Z,5.80
2018-05-25T10:24:03.796Z,5.10
2018-05-25T10:26:31.250Z,4.78
2018-05-25T10:28:58.724Z,4.50
2018-05-25T10:31:26.166Z,4.95
2018-05-25T10:33:53.605Z,5.50
2018-05-25T10:36:21.202Z,4.85
2018-05-25T10:38:48.669Z,4.70
2018-05-25T10:41:16.154Z,5.65
2018-05-25T10:43:43.572Z,4.50
2018-05-25T10:46:11.104Z,4.80
2018-05-25T10:48:38.582Z,5.53
2018-05-25T10:51:05.999Z,8.20
2018-05-25T10:53:33.578Z,4.30
2018-05-25T10:56:01.075Z,4.82
2018-05-25T10:58:28.456Z,5.60
2018-05-25T11:00:56.663Z,4.68
2018-05-25T11:03:24.141Z,4.77
2018-05-25T11:05:51.618Z,6.20
2018-05-25T11:08:19.064Z,7.15
2018-05-25T11:10:46.589Z,5.30
2018-05-25T11:13:14.021Z,4.65
2018-05-25T11:15:41.460Z,9.93
2018-05-25T11:18:08.933Z,5.32
2018-05-25T11:20:36.517Z,5.32
2018-05-25T11:23:03.996Z,5.40
2018-05-25T11:25:31.457Z,5.00
2018-05-25T11:27:58.888Z,5.50
2018-05-25T11:30:26.339Z,4.47
2018-05-25T11:32:53.772Z,4.93
2018-05-25T11:35:21.257Z,4.78
2018-05-25T11:37:48.717Z,4.40
2018-05-25T11:40:16.154Z,4.53
2018-05-25T11:42:43.612Z,4.70
2018-05-25T11:45:11.093Z,4.30
2018-05-25T11:47:38.511Z,5.10
2018-05-25T11:50:06.744Z,4.90
2018-05-25T11:52:34.199Z,4.30
2018-05-25T11:55:01.658Z,4.13
2018-05-25T11:57:29.115Z,4.47
2018-05-25T11:59:57.505Z,5.20
2018-05-25T12:02:24.956Z,5.50
2018-05-25T12:04:52.392Z,4.80
2018-05-25T12:07:19.861Z,5.10
2018-05-25T12:09:47.302Z,5.40
2018-05-25T12:12:14.741Z,4.40
2018-05-25T12:14:42.305Z,4.20
2018-05-25T12:17:09.729Z,4.45
2018-05-25T12:19:37.164Z,5.10
2018-05-25T12:22:05.387Z,4.73
2018-05-25T12:24:32.841Z,4.80
2018-05-25T12:27:00.324Z,4.80
2018-05-25T12:29:27.764Z,4.50
2018-05-25T12:31:55.214Z,4.45
2018-05-25T12:34:22.647Z,4.82
2018-05-25T12:36:50.144Z,4.70
2018-05-25T12:39:17.602Z,5.40
2018-05-25T12:41:45.031Z,5.10
2018-05-25T12:44:12.569Z,4.13
2018-05-25T12:46:40.029Z,4.10
2018-05-25T12:49:08.245Z,4.60
2018-05-25T12:51:35.672Z,6.32
2018-05-25T12:54:03.228Z,16.85
2018-05-25T12:56:30.669Z,8.30
2018-05-25T12:58:58.900Z,4.53
2018-05-25T13:01:26.370Z,4.37
2018-05-25T13:03:53.884Z,3.90
2018-05-25T13:06:21.318Z,3.85
2018-05-25T13:08:48.752Z,4.70
2018-05-25T13:11:17.071Z,5.10
2018-05-25T13:13:44.496Z,5.25
2018-05-25T13:16:12.710Z,4.15
2018-05-25T13:18:40.260Z,4.10
2018-05-25T13:21:07.689Z,3.70
2018-05-25T13:23:35.188Z,5.20
2018-05-25T13:26:02.662Z,3.85
2018-05-25T13:28:30.096Z,4.30
2018-05-25T13:30:57.564Z,4.10
2018-05-25T13:33:25.100Z,3.50
2018-05-25T13:35:52.542Z,3.78
2018-05-25T13:38:20.026Z,3.80
2018-05-25T13:40:47.455Z,3.30
2018-05-25T13:43:14.929Z,3.97
2018-05-25T13:45:42.414Z,3.65
2018-05-25T13:48:10.044Z,4.35
2018-05-25T13:50:37.535Z,3.78
2018-05-25T13:53:05.073Z,3.72
2018-05-25T13:55:32.500Z,3.97
2018-05-25T13:57:59.945Z,5.40
2018-05-25T14:00:27.436Z,3.80
2018-05-25T14:02:54.892Z,3.65
2018-05-25T14:05:22.450Z,3.80
2018-05-25T14:07:49.948Z,3.33
2018-05-25T14:10:17.408Z,3.78
2018-05-25T14:12:44.848Z,3.50
2018-05-25T14:15:13.897Z,3.80
2018-05-25T14:17:41.387Z,3.50
2018-05-25T14:20:08.842Z,3.58
2018-05-25T14:22:36.264Z,4.60
2018-05-25T14:25:03.745Z,20.92
2018-05-25T14:27:31.199Z,3.50
2018-05-25T14:29:58.644Z,3.60
2018-05-25T14:32:26.072Z,3.70
2018-05-25T14:34:53.562Z,3.97
2018-05-25T14:37:21.012Z,4.87
2018-05-25T14:39:48.480Z,3.60
2018-05-25T14:42:15.945Z,3.20
2018-05-25T14:44:43.491Z,3.20
2018-05-25T14:47:10.931Z,3.55
2018-05-25T14:49:39.156Z,3.12
2018-05-25T14:52:06.633Z,3.30
2018-05-25T14:54:34.052Z,3.40
2018-05-25T14:57:01.593Z,3.22
2018-05-25T14:59:29.014Z,2.92
2018-05-25T15:01:57.416Z,3.00
2018-05-25T15:04:24.918Z,2.62
2018-05-25T15:06:52.444Z,3.15
2018-05-25T15:09:19.934Z,3.25
2018-05-25T15:11:47.383Z,3.20
2018-05-25T15:14:14.883Z,3.50
2018-05-25T15:16:43.152Z,2.85
2018-05-25T15:19:11.579Z,3.30
2018-05-25T15:21:39.006Z,3.10
2018-05-25T15:24:06.431Z,3.20
2018-05-25T15:26:34.644Z,2.90
2018-05-25T15:29:02.076Z,3.20
2018-05-25T15:31:30.269Z,2.62
2018-05-25T15:33:57.759Z,3.00
2018-05-25T15:36:25.292Z,2.67
2018-05-25T15:38:52.725Z,3.28
2018-05-25T15:41:20.167Z,2.92
2018-05-25T15:43:48.357Z,2.60
2018-05-25T15:46:15.909Z,2.70
2018-05-25T15:48:43.346Z,3.07
2018-05-25T15:51:11.575Z,3.00
2018-05-25T15:53:38.992Z,2.97
2018-05-25T15:56:07.245Z,2.90
2018-05-25T15:58:34.697Z,2.90
2018-05-25T16:01:02.149Z,2.70
2018-05-25T16:03:29.585Z,2.90
2018-05-25T16:05:57.053Z,3.80
2018-05-25T16:08:24.582Z,3.40
2018-05-25T16:10:52.013Z,3.20
2018-05-25T16:13:19.445Z,3.00
2018-05-25T16:15:47.695Z,3.10
2018-05-25T16:18:15.146Z,2.58
2018-05-25T16:20:42.679Z,3.10
2018-05-25T16:23:10.143Z,2.55
2018-05-25T16:25:37.576Z,3.10
2018-05-25T16:28:05.081Z,2.90
2018-05-25T16:30:32.562Z,3.05
2018-05-25T16:33:00.027Z,2.95
2018-05-25T16:35:28.212Z,2.40
2018-05-25T16:37:55.724Z,2.92
2018-05-25T16:40:23.279Z,3.05
2018-05-25T16:42:50.705Z,2.30
2018-05-25T16:45:18.296Z,2.50
2018-05-25T16:47:45.725Z,2.53
2018-05-25T16:50:13.201Z,2.30
2018-05-25T16:52:40.605Z,3.10
2018-05-25T16:55:08.845Z,2.10
2018-05-25T16:57:36.312Z,2.20
2018-05-25T17:00:03.764Z,2.45
2018-05-25T17:02:31.316Z,2.20
2018-05-25T17:04:58.851Z,2.57
2018-05-25T17:07:27.014Z,2.33
2018-05-25T17:09:54.474Z,3.17
2018-05-25T17:12:22.028Z,2.20
2018-05-25T17:14:49.474Z,2.10
2018-05-25T17:17:16.932Z,2.57
2018-05-25T17:19:44.412Z,3.17
2018-05-25T17:22:11.868Z,2.60
2018-05-25T17:24:39.321Z,2.30
2018-05-25T17:27:06.793Z,2.40
2018-05-25T17:29:34.284Z,2.28
2018-05-25T17:32:01.724Z,2.72
2018-05-25T17:34:30.797Z,2.22
2018-05-25T17:36:58.304Z,2.20
2018-05-25T17:39:25.745Z,2.30
2018-05-25T17:41:53.192Z,2.62
2018-05-25T17:44:20.720Z,2.10
2018-05-25T17:46:48.185Z,2.40
2018-05-25T17:49:16.417Z,2.22
2018-05-25T17:51:43.861Z,2.42
2018-05-25T17:54:12.139Z,2.30
2018-05-25T17:56:40.346Z,2.10
2018-05-25T17:59:08.787Z,2.50
2018-05-25T18:01:37.102Z,2.47
2018-05-25T18:04:04.533Z,2.60
2018-05-25T18:06:31.965Z,2.90
2018-05-25T18:09:00.190Z,2.80
2018-05-25T18:11:27.616Z,2.50
2018-05-25T18:13:55.054Z,2.22
2018-05-25T18:16:23.258Z,2.72
2018-05-25T18:18:50.701Z,2.40
2018-05-25T18:21:18.135Z,2.40
2018-05-25T18:23:45.584Z,3.00
2018-05-25T18:26:13.103Z,2.97
2018-05-25T18:28:40.569Z,2.10
2018-05-25T18:31:08.133Z,3.17
2018-05-25T18:33:35.634Z,2.60
2018-05-25T18:36:03.847Z,2.70
2018-05-25T18:38:31.300Z,2.90
2018-05-25T18:40:58.736Z,2.95
2018-05-25T18:43:26.190Z,2.55
2018-05-25T18:45:53.621Z,3.10
2018-05-25T18:48:21.824Z,2.90
2018-05-25T18:50:49.313Z,2.92
2018-05-25T18:53:16.780Z,2.90
2018-05-25T18:55:44.332Z,2.80
2018-05-25T18:58:11.807Z,2.77
2018-05-25T19:00:39.435Z,2.78
2018-05-25T19:03:06.955Z,2.80
2018-05-25T19:05:35.160Z,2.97
2018-05-25T19:08:02.613Z,2.60
2018-05-25T19:10:30.031Z,2.58
2018-05-25T19:12:58.244Z,2.53
2018-05-25T19:15:25.723Z,2.45
2018-05-25T19:17:53.169Z,2.87
2018-05-25T19:20:20.640Z,3.05
2018-05-25T19:22:48.156Z,2.90
2018-05-25T19:25:16.347Z,2.70
2018-05-25T19:27:43.803Z,2.40
2018-05-25T19:30:11.247Z,2.90
2018-05-25T19:32:38.711Z,2.60
2018-05-25T19:35:06.171Z,3.17
2018-05-25T19:37:33.652Z,3.83
2018-05-25T19:40:01.106Z,4.10
2018-05-25T19:42:28.554Z,3.83
2018-05-25T19:44:56.064Z,3.22
2018-05-25T19:47:23.604Z,3.22
2018-05-25T19:49:51.223Z,3.33
2018-05-25T19:52:18.676Z,3.20
2018-05-25T19:54:46.229Z,2.90
2018-05-25T19:57:13.733Z,2.97
2018-05-25T19:59:41.168Z,3.17
2018-05-25T20:02:08.623Z,5.50
2018-05-25T20:04:36.163Z,3.58
2018-05-25T20:07:03.676Z,2.90
2018-05-25T20:09:31.148Z,3.20
2018-05-25T20:12:00.356Z,3.35
2018-05-25T20:14:27.809Z,3.40
2018-05-25T20:16:55.315Z,3.30
2018-05-25T20:19:22.788Z,3.50
2018-05-25T20:21:50.233Z,3.40
2018-05-25T20:24:17.671Z,3.03
2018-05-25T20:26:45.201Z,2.63
2018-05-25T20:29:12.727Z,4.07
2018-05-25T20:31:40.275Z,3.10
2018-05-25T20:34:07.744Z,3.78
2018-05-25T20:36:35.270Z,3.90
2018-05-25T20:39:02.731Z,3.65
2018-05-25T20:41:30.180Z,3.10
2018-05-25T20:43:57.646Z,3.03
2018-05-25T20:46:25.114Z,5.87
2018-05-25T20:48:52.554Z,4.60
2018-05-25T20:51:19.984Z,2.90
2018-05-25T20:53:47.432Z,3.10
2018-05-25T20:56:14.858Z,3.50
2018-05-25T20:58:43.053Z,3.70
2018-05-25T21:01:10.554Z,2.97
2018-05-25T21:03:38.008Z,3.55
2018-05-25T21:06:05.464Z,3.63
2018-05-25T21:08:33.050Z,3.28
2018-05-25T21:11:00.537Z,3.17
2018-05-25T21:13:27.975Z,2.90
2018-05-25T21:15:56.168Z,3.20
2018-05-25T21:18:23.650Z,3.17
2018-05-25T21:20:51.102Z,3.17
2018-05-25T21:23:18.551Z,3.40
2018-05-25T21:25:45.985Z,2.87
2018-05-25T21:28:14.196Z,3.42
2018-05-25T21:30:41.740Z,3.07
2018-05-25T21:33:09.160Z,3.70
2018-05-25T21:35:37.366Z,2.97
2018-05-25T21:38:05.036Z,3.15
2018-05-25T21:40:32.455Z,3.00
2018-05-25T21:42:59.952Z,3.20
2018-05-25T21:45:27.395Z,3.22
2018-05-25T21:47:54.821Z,3.12
2018-05-25T21:50:23.133Z,2.90
2018-05-25T21:52:50.620Z,3.15
2018-05-25T21:55:18.151Z,3.20
2018-05-25T21:57:45.573Z,3.40
2018-05-25T22:00:13.797Z,3.80
2018-05-25T22:02:41.236Z,3.20
2018-05-25T22:05:08.668Z,3.58
2018-05-25T22:07:36.757Z,3.75
2018-05-25T22:10:04.228Z,3.90
2018-05-25T22:12:31.666Z,3.65
2018-05-25T22:14:59.160Z,3.60
2018-05-25T22:17:26.606Z,3.75
2018-05-25T22:19:54.081Z,3.80
2018-05-25T22:22:21.519Z,3.80
2018-05-25T22:24:48.968Z,4.20
2018-05-25T22:27:16.411Z,4.05
2018-05-25T22:29:43.833Z,3.62
2018-05-25T22:32:12.038Z,4.47
2018-05-25T22:34:39.476Z,4.60
2018-05-25T22:37:07.057Z,5.30
2018-05-25T22:39:34.576Z,5.20
2018-05-25T22:42:01.582Z,5.33
2018-05-25T22:44:40.940Z,4.53
2018-05-25T22:47:20.330Z,4.53
2018-05-25T22:49:59.784Z,5.60
2018-05-25T22:52:32.447Z,5.20
2018-05-25T22:55:00.001Z,6.70
2018-05-25T22:57:27.446Z,6.20
2018-05-25T22:59:54.880Z,5.30
2018-05-25T23:02:23.086Z,5.75
2018-05-25T23:04:50.649Z,5.32
2018-05-25T23:07:18.105Z,5.35
2018-05-25T23:09:45.549Z,9.65
2018-05-25T23:12:13.036Z,6.10
2018-05-25T23:14:40.481Z,6.28
2018-05-25T23:17:07.922Z,5.90
2018-05-25T23:19:35.348Z,6.28
2018-05-25T23:22:03.592Z,7.25
2018-05-25T23:24:31.045Z,6.43
2018-05-25T23:26:58.586Z,6.47
2018-05-25T23:29:26.059Z,6.75
2018-05-25T23:31:54.512Z,7.05
2018-05-25T23:34:21.984Z,7.57
2018-05-25T23:36:49.449Z,7.60
2018-05-25T23:39:16.892Z,8.13
2018-05-25T23:41:44.344Z,7.97
2018-05-25T23:44:11.790Z,7.78
2018-05-25T23:46:39.240Z,8.20
2018-05-25T23:49:06.664Z,10.13
2018-05-25T23:51:34.895Z,9.30
2018-05-25T23:54:02.429Z,9.82
2018-05-25T23:56:29.868Z,9.23
2018-05-25T23:58:57.305Z,9.38
